createdAt,value
2023-01-13T00:00:25.649Z,979.08
2023-01-13T00:01:25.583Z,979.02
2023-01-13T00:02:25.657Z,979.04
2023-01-13T00:03:25.561Z,979.03
2023-01-13T00:04:25.718Z,979.02
2023-01-13T00:05:25.536Z,979.00
2023-01-13T00:06:25.525Z,978.98
2023-01-13T00:07:25.509Z,978.99
2023-01-13T00:08:25.513Z,978.99
2023-01-13T00:09:25.493Z,979.02
2023-01-13T00:10:25.531Z,978.99
2023-01-13T00:11:25.503Z,978.97
2023-01-13T00:12:25.481Z,978.90
2023-01-13T00:13:25.458Z,978.91
2023-01-13T00:14:25.440Z,978.90
2023-01-13T00:15:25.438Z,978.92
2023-01-13T00:16:25.440Z,978.86
2023-01-13T00:17:25.411Z,978.86
2023-01-13T00:18:25.422Z,978.92
2023-01-13T00:19:25.393Z,978.82
2023-01-13T00:20:25.392Z,978.85
2023-01-13T00:21:25.402Z,978.82
2023-01-13T00:22:25.357Z,978.78
2023-01-13T00:23:25.360Z,978.79
2023-01-13T00:24:25.345Z,978.78
2023-01-13T00:25:25.321Z,978.82
2023-01-13T00:26:25.366Z,978.77
2023-01-13T00:27:25.330Z,978.81
2023-01-13T00:28:25.290Z,978.79
2023-01-13T00:29:25.286Z,978.77
2023-01-13T00:30:25.279Z,978.77
2023-01-13T00:31:25.457Z,978.74
2023-01-13T00:32:25.270Z,978.73
2023-01-13T00:33:25.257Z,978.76
2023-01-13T00:34:25.236Z,978.73
2023-01-13T00:35:25.236Z,978.70
2023-01-13T00:36:25.245Z,978.69
2023-01-13T00:37:25.203Z,978.73
2023-01-13T00:38:25.193Z,978.67
2023-01-13T00:39:25.195Z,978.71
2023-01-13T00:40:25.178Z,978.65
2023-01-13T00:41:25.169Z,978.66
2023-01-13T00:42:25.381Z,978.64
2023-01-13T00:43:25.165Z,978.66
2023-01-13T00:44:25.130Z,978.62
2023-01-13T00:45:25.120Z,978.65
2023-01-13T00:46:25.191Z,978.63
2023-01-13T00:47:25.097Z,978.64
2023-01-13T00:48:25.114Z,978.61
2023-01-13T00:49:25.083Z,978.60
2023-01-13T00:50:25.090Z,978.58
2023-01-13T00:51:25.059Z,978.58
2023-01-13T00:52:25.053Z,978.60
2023-01-13T00:53:25.063Z,978.66
2023-01-13T00:54:25.044Z,978.59
2023-01-13T00:55:25.025Z,978.61
2023-01-13T00:56:39.275Z,978.58
2023-01-13T00:57:25.019Z,978.60
2023-01-13T00:58:24.987Z,978.56
2023-01-13T00:59:24.980Z,978.61
2023-01-13T01:00:24.968Z,978.59
2023-01-13T01:01:25.076Z,978.60
2023-01-13T01:02:25.019Z,978.54
2023-01-13T01:03:24.977Z,978.55
2023-01-13T01:04:24.929Z,978.56
2023-01-13T01:05:24.925Z,978.54
2023-01-13T01:06:24.903Z,978.55
2023-01-13T01:07:24.892Z,978.49
2023-01-13T01:08:24.886Z,978.60
2023-01-13T01:09:24.897Z,978.49
2023-01-13T01:10:24.865Z,978.53
2023-01-13T01:11:24.863Z,978.48
2023-01-13T01:12:24.855Z,978.50
2023-01-13T01:13:24.838Z,978.54
2023-01-13T01:14:24.854Z,978.47
2023-01-13T01:15:24.810Z,978.48
2023-01-13T01:16:24.894Z,978.57
2023-01-13T01:17:24.800Z,978.51
2023-01-13T01:18:24.807Z,978.47
2023-01-13T01:19:24.771Z,978.43
2023-01-13T01:20:24.774Z,978.40
2023-01-13T01:21:24.745Z,978.45
2023-01-13T01:22:24.762Z,978.40
2023-01-13T01:23:24.724Z,978.36
2023-01-13T01:24:24.737Z,978.40
2023-01-13T01:25:24.719Z,978.46
2023-01-13T01:26:24.728Z,978.40
2023-01-13T01:27:24.682Z,978.42
2023-01-13T01:28:24.675Z,978.46
2023-01-13T01:29:24.658Z,978.43
2023-01-13T01:30:24.680Z,978.42
2023-01-13T01:31:24.780Z,978.46
2023-01-13T01:32:24.636Z,978.45
2023-01-13T01:33:24.624Z,978.40
2023-01-13T01:34:24.611Z,978.46
2023-01-13T01:35:24.618Z,978.46
2023-01-13T01:36:24.619Z,978.38
2023-01-13T01:37:24.574Z,978.37
2023-01-13T01:38:24.586Z,978.49
2023-01-13T01:39:24.569Z,978.35
2023-01-13T01:40:24.550Z,978.34
2023-01-13T01:41:24.582Z,978.34
2023-01-13T01:42:24.538Z,978.36
2023-01-13T01:43:24.521Z,978.32
2023-01-13T01:44:24.518Z,978.36
2023-01-13T01:45:24.502Z,978.27
2023-01-13T01:46:24.552Z,978.26
2023-01-13T01:47:24.504Z,978.32
2023-01-13T01:48:24.473Z,978.29
2023-01-13T01:49:24.465Z,978.25
2023-01-13T01:50:24.461Z,978.28
2023-01-13T01:51:24.436Z,978.26
2023-01-13T01:52:24.461Z,978.34
2023-01-13T01:53:24.422Z,978.34
2023-01-13T01:54:24.425Z,978.29
2023-01-13T01:55:24.399Z,978.31
2023-01-13T01:56:24.388Z,978.30
2023-01-13T01:57:24.373Z,978.32
2023-01-13T01:58:24.387Z,978.25
2023-01-13T01:59:24.378Z,978.25
2023-01-13T02:00:24.364Z,978.30
2023-01-13T02:01:24.502Z,978.31
2023-01-13T02:02:24.412Z,978.28
2023-01-13T02:03:24.319Z,978.22
2023-01-13T02:04:24.330Z,978.34
2023-01-13T02:05:24.304Z,978.21
2023-01-13T02:06:24.276Z,978.25
2023-01-13T02:07:24.267Z,978.28
2023-01-13T02:08:24.263Z,978.18
2023-01-13T02:09:24.247Z,978.19
2023-01-13T02:10:24.270Z,978.16
2023-01-13T02:11:24.227Z,978.16
2023-01-13T02:12:24.263Z,978.12
2023-01-13T02:13:24.207Z,978.15
2023-01-13T02:14:24.190Z,978.17
2023-01-13T02:15:24.188Z,978.09
2023-01-13T02:16:24.304Z,978.17
2023-01-13T02:17:24.175Z,978.15
2023-01-13T02:18:24.152Z,978.11
2023-01-13T02:19:24.141Z,978.08
2023-01-13T02:20:24.134Z,978.09
2023-01-13T02:21:24.123Z,978.09
2023-01-13T02:22:24.151Z,978.04
2023-01-13T02:23:24.099Z,978.01
2023-01-13T02:24:24.104Z,977.95
2023-01-13T02:25:24.090Z,978.01
2023-01-13T02:26:24.067Z,977.98
2023-01-13T02:27:24.062Z,977.95
2023-01-13T02:28:24.089Z,977.91
2023-01-13T02:29:24.043Z,977.89
2023-01-13T02:30:24.031Z,977.90
2023-01-13T02:31:24.055Z,977.82
2023-01-13T02:32:24.257Z,977.83
2023-01-13T02:33:23.999Z,977.80
2023-01-13T02:34:23.992Z,977.77
2023-01-13T02:35:23.991Z,977.79
2023-01-13T02:36:23.968Z,977.77
2023-01-13T02:37:23.957Z,977.74
2023-01-13T02:38:23.969Z,977.77
2023-01-13T02:39:23.937Z,977.74
2023-01-13T02:40:23.930Z,977.74
2023-01-13T02:41:23.913Z,977.82
2023-01-13T02:42:23.922Z,977.79
2023-01-13T02:43:23.889Z,977.75
2023-01-13T02:44:23.899Z,977.76
2023-01-13T02:45:23.947Z,977.75
2023-01-13T02:46:23.864Z,977.74
2023-01-13T02:47:23.865Z,977.74
2023-01-13T02:48:23.842Z,977.71
2023-01-13T02:49:24.067Z,977.71
2023-01-13T02:50:23.824Z,977.77
2023-01-13T02:51:23.831Z,977.76
2023-01-13T02:52:23.809Z,977.84
2023-01-13T02:53:23.790Z,977.77
2023-01-13T02:54:23.783Z,977.77
2023-01-13T02:55:23.789Z,977.70
2023-01-13T02:56:23.770Z,977.73
2023-01-13T02:57:23.749Z,977.68
2023-01-13T02:58:23.761Z,977.74
2023-01-13T02:59:23.735Z,977.75
2023-01-13T03:00:23.780Z,977.76
2023-01-13T03:01:23.893Z,977.75
2023-01-13T03:02:23.819Z,977.76
2023-01-13T03:03:23.770Z,977.81
2023-01-13T03:04:23.715Z,977.80
2023-01-13T03:05:23.705Z,977.77
2023-01-13T03:06:23.705Z,977.68
2023-01-13T03:07:23.691Z,977.70
2023-01-13T03:08:23.677Z,977.65
2023-01-13T03:09:23.696Z,977.60
2023-01-13T03:10:23.647Z,977.64
2023-01-13T03:11:23.641Z,977.58
2023-01-13T03:12:23.628Z,977.60
2023-01-13T03:13:23.622Z,977.61
2023-01-13T03:14:23.606Z,977.57
2023-01-13T03:15:23.626Z,977.57
2023-01-13T03:16:23.635Z,977.56
2023-01-13T03:17:23.585Z,977.54
2023-01-13T03:18:23.573Z,977.51
2023-01-13T03:19:23.562Z,977.49
2023-01-13T03:20:23.562Z,977.47
2023-01-13T03:21:23.565Z,977.48
2023-01-13T03:22:23.520Z,977.46
2023-01-13T03:23:23.532Z,977.52
2023-01-13T03:24:23.502Z,977.51
2023-01-13T03:25:23.507Z,977.49
2023-01-13T03:26:23.525Z,977.56
2023-01-13T03:27:23.488Z,977.48
2023-01-13T03:28:23.466Z,977.51
2023-01-13T03:29:23.464Z,977.51
2023-01-13T03:30:23.562Z,977.51
2023-01-13T03:31:23.439Z,977.52
2023-01-13T03:32:23.443Z,977.50
2023-01-13T03:33:23.420Z,977.52
2023-01-13T03:34:23.405Z,977.52
2023-01-13T03:35:23.392Z,977.51
2023-01-13T03:36:23.380Z,977.45
2023-01-13T03:37:23.686Z,977.47
2023-01-13T03:38:23.358Z,977.52
2023-01-13T03:39:23.363Z,977.52
2023-01-13T03:40:23.339Z,977.46
2023-01-13T03:41:23.350Z,977.47
2023-01-13T03:42:23.339Z,977.45
2023-01-13T03:43:23.344Z,977.45
2023-01-13T03:44:23.357Z,977.49
2023-01-13T03:45:23.298Z,977.45
2023-01-13T03:46:23.392Z,977.46
2023-01-13T03:47:23.278Z,977.44
2023-01-13T03:48:23.283Z,977.49
2023-01-13T03:49:23.253Z,977.55
2023-01-13T03:50:23.244Z,977.52
2023-01-13T03:51:23.232Z,977.48
2023-01-13T03:52:23.222Z,977.48
2023-01-13T03:53:23.210Z,977.46
2023-01-13T03:54:23.210Z,977.48
2023-01-13T03:55:23.177Z,977.40
2023-01-13T03:56:23.172Z,977.43
2023-01-13T03:57:23.174Z,977.43
2023-01-13T03:58:23.147Z,977.38
2023-01-13T03:59:23.162Z,977.41
2023-01-13T04:00:23.140Z,977.43
2023-01-13T04:01:23.293Z,977.42
2023-01-13T04:02:23.145Z,977.38
2023-01-13T04:03:23.160Z,977.41
2023-01-13T04:04:23.097Z,977.40
2023-01-13T04:05:23.117Z,977.46
2023-01-13T04:06:23.092Z,977.43
2023-01-13T04:07:23.061Z,977.60
2023-01-13T04:08:23.054Z,977.42
2023-01-13T04:09:23.046Z,977.44
2023-01-13T04:10:23.022Z,977.44
2023-01-13T04:11:23.053Z,977.49
2023-01-13T04:12:23.011Z,977.43
2023-01-13T04:13:23.001Z,977.52
2023-01-13T04:14:22.985Z,977.45
2023-01-13T04:15:22.996Z,977.44
2023-01-13T04:16:22.970Z,977.36
2023-01-13T04:17:23.002Z,977.36
2023-01-13T04:18:22.962Z,977.34
2023-01-13T04:19:22.945Z,977.36
2023-01-13T04:20:22.927Z,977.33
2023-01-13T04:21:22.930Z,977.32
2023-01-13T04:22:22.908Z,977.30
2023-01-13T04:23:22.988Z,977.31
2023-01-13T04:24:22.890Z,977.24
2023-01-13T04:25:22.883Z,977.25
2023-01-13T04:26:22.864Z,977.27
2023-01-13T04:27:22.854Z,977.26
2023-01-13T04:28:22.853Z,977.28
2023-01-13T04:29:22.872Z,977.22
2023-01-13T04:30:22.831Z,977.20
2023-01-13T04:31:22.922Z,977.27
2023-01-13T04:32:22.797Z,977.20
2023-01-13T04:33:22.802Z,977.31
2023-01-13T04:34:22.786Z,977.23
2023-01-13T04:35:22.822Z,977.16
2023-01-13T04:36:22.756Z,977.20
2023-01-13T04:37:22.755Z,977.10
2023-01-13T04:38:22.749Z,977.20
2023-01-13T04:39:22.738Z,977.08
2023-01-13T04:40:22.724Z,977.17
2023-01-13T04:41:22.858Z,977.05
2023-01-13T04:42:22.702Z,977.15
2023-01-13T04:43:22.691Z,976.96
2023-01-13T04:44:22.674Z,976.94
2023-01-13T04:45:22.676Z,976.93
2023-01-13T04:46:22.717Z,976.97
2023-01-13T04:47:22.672Z,976.95
2023-01-13T04:48:22.639Z,977.00
2023-01-13T04:49:22.631Z,977.05
2023-01-13T04:50:22.639Z,976.95
2023-01-13T04:51:22.605Z,977.01
2023-01-13T04:52:22.621Z,977.01
2023-01-13T04:53:22.610Z,977.00
2023-01-13T04:54:22.565Z,976.93
2023-01-13T04:55:22.572Z,976.85
2023-01-13T04:56:22.546Z,976.95
2023-01-13T04:57:22.547Z,976.96
2023-01-13T04:58:22.931Z,976.99
2023-01-13T04:59:22.520Z,977.00
2023-01-13T05:00:22.518Z,976.98
2023-01-13T05:01:22.697Z,976.99
2023-01-13T05:02:22.555Z,977.01
2023-01-13T05:03:22.484Z,977.00
2023-01-13T05:04:22.624Z,977.03
2023-01-13T05:05:22.462Z,976.97
2023-01-13T05:06:22.485Z,976.96
2023-01-13T05:07:22.439Z,977.01
2023-01-13T05:08:22.423Z,976.99
2023-01-13T05:09:22.423Z,976.96
2023-01-13T05:10:23.979Z,976.94
2023-01-13T05:11:22.405Z,976.98
2023-01-13T05:12:22.406Z,976.98
2023-01-13T05:13:22.379Z,976.98
2023-01-13T05:14:22.361Z,977.00
2023-01-13T05:15:22.353Z,976.99
2023-01-13T05:16:22.403Z,976.96
2023-01-13T05:17:22.347Z,976.93
2023-01-13T05:18:22.343Z,976.96
2023-01-13T05:19:22.324Z,976.98
2023-01-13T05:20:22.299Z,976.98
2023-01-13T05:21:22.297Z,976.93
2023-01-13T05:22:22.283Z,976.93
2023-01-13T05:23:22.294Z,976.95
2023-01-13T05:24:22.270Z,976.90
2023-01-13T05:25:22.258Z,976.95
2023-01-13T05:26:22.255Z,976.93
2023-01-13T05:27:22.270Z,976.91
2023-01-13T05:28:22.263Z,976.98
2023-01-13T05:29:22.209Z,976.99
2023-01-13T05:30:22.201Z,977.05
2023-01-13T05:31:22.233Z,977.09
2023-01-13T05:32:22.180Z,977.11
2023-01-13T05:33:22.170Z,977.04
2023-01-13T05:34:22.203Z,977.08
2023-01-13T05:35:22.162Z,977.08
2023-01-13T05:36:22.141Z,977.04
2023-01-13T05:37:22.256Z,977.14
2023-01-13T05:38:22.112Z,977.13
2023-01-13T05:39:22.149Z,977.10
2023-01-13T05:40:22.095Z,977.10
2023-01-13T05:41:22.093Z,977.05
2023-01-13T05:42:22.071Z,977.06
2023-01-13T05:43:22.194Z,977.02
2023-01-13T05:44:22.053Z,977.06
2023-01-13T05:45:22.070Z,977.08
2023-01-13T05:46:22.051Z,977.04
2023-01-13T05:47:22.028Z,977.08
2023-01-13T05:48:22.031Z,977.02
2023-01-13T05:49:22.048Z,977.06
2023-01-13T05:50:22.001Z,977.07
2023-01-13T05:51:21.994Z,977.04
2023-01-13T05:52:21.971Z,977.05
2023-01-13T05:53:21.981Z,976.98
2023-01-13T05:54:21.997Z,977.00
2023-01-13T05:55:21.938Z,977.00
2023-01-13T05:56:21.924Z,976.97
2023-01-13T05:57:21.926Z,977.02
2023-01-13T05:58:21.901Z,977.04
2023-01-13T05:59:21.897Z,977.02
2023-01-13T06:00:21.927Z,977.02
2023-01-13T06:01:22.001Z,977.01
2023-01-13T06:02:21.862Z,977.02
2023-01-13T06:03:21.876Z,977.01
2023-01-13T06:04:21.872Z,977.02
2023-01-13T06:05:21.839Z,977.08
2023-01-13T06:06:22.219Z,977.09
2023-01-13T06:07:21.833Z,977.08
2023-01-13T06:08:21.797Z,977.05
2023-01-13T06:09:21.806Z,977.04
2023-01-13T06:10:21.779Z,977.02
2023-01-13T06:11:21.771Z,977.00
2023-01-13T06:12:21.783Z,976.99
2023-01-13T06:13:21.759Z,976.97
2023-01-13T06:14:21.737Z,976.96
2023-01-13T06:15:21.738Z,976.96
2023-01-13T06:16:21.771Z,976.94
2023-01-13T06:17:21.713Z,976.99
2023-01-13T06:18:21.722Z,976.94
2023-01-13T06:19:21.686Z,976.97
2023-01-13T06:20:21.675Z,976.97
2023-01-13T06:21:21.666Z,976.95
2023-01-13T06:22:21.658Z,976.95
2023-01-13T06:23:21.678Z,977.01
2023-01-13T06:24:21.639Z,977.03
2023-01-13T06:25:21.630Z,977.08
2023-01-13T06:26:21.640Z,977.12
2023-01-13T06:27:21.634Z,977.09
2023-01-13T06:28:21.635Z,977.11
2023-01-13T06:29:21.582Z,977.14
2023-01-13T06:30:21.588Z,977.16
2023-01-13T06:31:21.611Z,977.14
2023-01-13T06:32:21.553Z,977.15
2023-01-13T06:33:21.550Z,977.20
2023-01-13T06:34:21.551Z,977.19
2023-01-13T06:35:21.526Z,977.09
2023-01-13T06:36:21.507Z,977.07
2023-01-13T06:37:21.509Z,977.08
2023-01-13T06:38:21.497Z,977.02
2023-01-13T06:39:21.543Z,977.05
2023-01-13T06:40:21.484Z,977.04
2023-01-13T06:41:21.461Z,977.05
2023-01-13T06:42:21.449Z,977.09
2023-01-13T06:43:21.439Z,977.10
2023-01-13T06:44:21.429Z,977.11
2023-01-13T06:45:21.653Z,977.10
2023-01-13T06:46:21.459Z,977.11
2023-01-13T06:47:21.392Z,977.13
2023-01-13T06:48:21.380Z,977.17
2023-01-13T06:49:21.792Z,977.22
2023-01-13T06:50:21.356Z,977.22
2023-01-13T06:51:21.375Z,977.27
2023-01-13T06:52:21.337Z,977.31
2023-01-13T06:53:21.386Z,977.35
2023-01-13T06:54:21.316Z,977.40
2023-01-13T06:55:21.327Z,977.49
2023-01-13T06:56:21.319Z,977.61
2023-01-13T06:57:21.297Z,977.72
2023-01-13T06:58:21.288Z,977.84
2023-01-13T06:59:21.268Z,977.90
2023-01-13T07:00:21.268Z,977.66
2023-01-13T07:01:21.481Z,977.99
2023-01-13T07:02:21.453Z,977.91
2023-01-13T07:03:21.234Z,978.06
2023-01-13T07:04:21.248Z,978.19
2023-01-13T07:05:21.213Z,978.05
2023-01-13T07:06:21.202Z,978.06
2023-01-13T07:07:21.188Z,977.88
2023-01-13T07:08:21.604Z,978.01
2023-01-13T07:09:21.170Z,978.06
2023-01-13T07:10:21.167Z,978.10
2023-01-13T07:11:21.157Z,978.07
2023-01-13T07:12:21.142Z,978.09
2023-01-13T07:13:21.173Z,978.06
2023-01-13T07:14:21.152Z,978.03
2023-01-13T07:15:21.114Z,978.08
2023-01-13T07:16:21.161Z,978.07
2023-01-13T07:17:21.084Z,978.10
2023-01-13T07:18:21.078Z,978.19
2023-01-13T07:19:22.198Z,978.17
2023-01-13T07:20:21.083Z,978.17
2023-01-13T07:21:21.040Z,978.17
2023-01-13T07:22:21.031Z,978.26
2023-01-13T07:23:21.042Z,978.30
2023-01-13T07:24:21.035Z,978.31
2023-01-13T07:25:21.001Z,978.37
2023-01-13T07:26:21.027Z,978.40
2023-01-13T07:27:20.980Z,978.48
2023-01-13T07:28:20.973Z,978.45
2023-01-13T07:29:20.969Z,978.55
2023-01-13T07:30:21.156Z,978.56
2023-01-13T07:31:21.027Z,978.56
2023-01-13T07:32:20.931Z,978.59
2023-01-13T07:33:20.924Z,978.58
2023-01-13T07:34:20.918Z,978.56
2023-01-13T07:35:20.897Z,978.63
2023-01-13T07:36:20.906Z,978.56
2023-01-13T07:37:20.917Z,978.61
2023-01-13T07:38:20.870Z,978.60
2023-01-13T07:39:20.855Z,978.61
2023-01-13T07:40:20.852Z,978.57
2023-01-13T07:41:20.839Z,978.56
2023-01-13T07:42:20.831Z,978.60
2023-01-13T07:43:20.860Z,978.57
2023-01-13T07:44:20.864Z,978.63
2023-01-13T07:45:20.810Z,978.60
2023-01-13T07:46:20.787Z,978.61
2023-01-13T07:47:20.776Z,978.59
2023-01-13T07:48:20.769Z,978.54
2023-01-13T07:49:20.781Z,978.58
2023-01-13T07:50:20.745Z,978.57
2023-01-13T07:51:20.728Z,978.59
2023-01-13T07:52:20.731Z,978.57
2023-01-13T07:53:20.711Z,978.59
2023-01-13T07:54:25.483Z,978.62
2023-01-13T07:55:20.694Z,978.55
2023-01-13T07:56:20.692Z,978.60
2023-01-13T07:57:20.681Z,978.56
2023-01-13T07:58:20.665Z,978.56
2023-01-13T07:59:20.645Z,978.55
2023-01-13T08:00:20.671Z,978.62
2023-01-13T08:01:20.729Z,978.60
2023-01-13T08:02:20.801Z,978.53
2023-01-13T08:03:20.621Z,978.52
2023-01-13T08:04:20.609Z,978.60
2023-01-13T08:05:20.613Z,978.49
2023-01-13T08:06:20.583Z,978.41
2023-01-13T08:07:20.565Z,978.25
2023-01-13T08:08:20.556Z,978.22
2023-01-13T08:09:20.535Z,978.32
2023-01-13T08:10:20.574Z,978.30
2023-01-13T08:11:23.280Z,978.39
2023-01-13T08:12:20.519Z,978.36
2023-01-13T08:13:20.504Z,978.48
2023-01-13T08:14:20.505Z,978.48
2023-01-13T08:15:20.487Z,978.52
2023-01-13T08:16:20.518Z,978.60
2023-01-13T08:17:20.820Z,978.64
2023-01-13T08:18:20.461Z,978.71
2023-01-13T08:19:20.445Z,978.63
2023-01-13T08:20:20.439Z,978.62
2023-01-13T08:21:20.470Z,978.65
2023-01-13T08:22:20.456Z,978.66
2023-01-13T08:23:20.409Z,978.59
2023-01-13T08:24:20.406Z,978.51
2023-01-13T08:25:20.385Z,978.47
2023-01-13T08:26:20.388Z,978.44
2023-01-13T08:27:20.417Z,978.39
2023-01-13T08:28:20.404Z,978.36
2023-01-13T08:29:20.340Z,978.32
2023-01-13T08:30:20.343Z,978.34
2023-01-13T08:31:20.459Z,978.29
2023-01-13T08:32:20.310Z,978.25
2023-01-13T08:33:20.377Z,978.31
2023-01-13T08:34:20.307Z,978.35
2023-01-13T08:35:20.305Z,978.39
2023-01-13T08:36:20.278Z,978.39
2023-01-13T08:37:20.261Z,978.38
2023-01-13T08:38:20.261Z,978.48
2023-01-13T08:39:20.268Z,978.53
2023-01-13T08:40:20.233Z,978.55
2023-01-13T08:41:20.218Z,978.63
2023-01-13T08:42:20.221Z,978.67
2023-01-13T08:43:20.202Z,978.70
2023-01-13T08:44:20.202Z,978.73
2023-01-13T08:45:20.647Z,978.77
2023-01-13T08:46:20.223Z,978.69
2023-01-13T08:47:20.155Z,978.74
2023-01-13T08:48:20.145Z,978.70
2023-01-13T08:49:20.149Z,978.68
2023-01-13T08:50:20.128Z,978.65
2023-01-13T08:51:20.137Z,978.65
2023-01-13T08:52:20.111Z,978.62
2023-01-13T08:53:20.101Z,978.63
2023-01-13T08:54:20.115Z,978.71
2023-01-13T08:55:20.071Z,978.76
2023-01-13T08:56:20.098Z,978.78
2023-01-13T08:57:20.146Z,978.81
2023-01-13T08:58:20.063Z,978.82
2023-01-13T08:59:20.049Z,978.87
2023-01-13T09:00:20.075Z,978.88
2023-01-13T09:01:20.164Z,978.90
2023-01-13T09:02:20.225Z,978.93
2023-01-13T09:03:20.001Z,978.92
2023-01-13T09:04:20.089Z,978.84
2023-01-13T09:05:19.987Z,978.86
2023-01-13T09:06:19.972Z,978.90
2023-01-13T09:07:19.967Z,978.90
2023-01-13T09:08:19.939Z,978.94
2023-01-13T09:09:19.924Z,978.96
2023-01-13T09:10:19.928Z,978.97
2023-01-13T09:11:19.906Z,978.99
2023-01-13T09:12:19.918Z,979.06
2023-01-13T09:13:19.898Z,979.07
2023-01-13T09:14:19.882Z,979.05
2023-01-13T09:15:19.870Z,979.08
2023-01-13T09:16:19.973Z,979.06
2023-01-13T09:17:19.926Z,979.06
2023-01-13T09:18:19.840Z,979.07
2023-01-13T09:19:19.830Z,979.04
2023-01-13T09:20:19.824Z,979.09
2023-01-13T09:21:19.859Z,979.10
2023-01-13T09:22:19.797Z,979.07
2023-01-13T09:23:19.801Z,979.07
2023-01-13T09:24:19.782Z,979.06
2023-01-13T09:25:19.767Z,979.10
2023-01-13T09:26:19.763Z,979.08
2023-01-13T09:27:19.744Z,979.10
2023-01-13T09:28:19.736Z,979.10
2023-01-13T09:29:19.763Z,979.12
2023-01-13T09:30:19.722Z,979.15
2023-01-13T09:31:19.757Z,979.14
2023-01-13T09:32:19.698Z,979.20
2023-01-13T09:33:19.683Z,979.17
2023-01-13T09:34:19.686Z,979.11
2023-01-13T09:35:19.680Z,979.15
2023-01-13T09:36:19.662Z,979.14
2023-01-13T09:37:19.641Z,979.15
2023-01-13T09:38:19.642Z,979.13
2023-01-13T09:39:19.623Z,979.12
2023-01-13T09:40:19.636Z,979.10
2023-01-13T09:41:19.599Z,979.13
2023-01-13T09:42:19.615Z,979.14
2023-01-13T09:43:19.599Z,979.16
2023-01-13T09:44:19.578Z,979.16
2023-01-13T09:45:19.571Z,979.15
2023-01-13T09:46:19.649Z,979.13
2023-01-13T09:47:19.538Z,979.12
2023-01-13T09:48:19.556Z,979.16
2023-01-13T09:49:19.525Z,979.10
2023-01-13T09:50:19.513Z,979.07
2023-01-13T09:51:19.553Z,979.05
2023-01-13T09:52:19.534Z,979.05
2023-01-13T09:53:19.481Z,979.02
2023-01-13T09:54:19.470Z,979.03
2023-01-13T09:55:19.464Z,979.02
2023-01-13T09:56:19.452Z,978.99
2023-01-13T09:57:19.436Z,978.99
2023-01-13T09:58:19.661Z,979.00
2023-01-13T09:59:19.424Z,978.98
2023-01-13T10:00:19.412Z,979.00
2023-01-13T10:01:19.425Z,978.99
2023-01-13T10:02:19.392Z,979.00
2023-01-13T10:03:19.486Z,979.05
2023-01-13T10:04:19.452Z,979.06
2023-01-13T10:05:19.356Z,979.08
2023-01-13T10:06:19.355Z,979.05
2023-01-13T10:07:19.348Z,979.03
2023-01-13T10:08:19.332Z,979.03
2023-01-13T10:09:19.335Z,979.04
2023-01-13T10:10:19.314Z,979.08
2023-01-13T10:11:19.295Z,979.10
2023-01-13T10:12:19.315Z,979.04
2023-01-13T10:13:19.271Z,979.08
2023-01-13T10:14:19.305Z,979.11
2023-01-13T10:15:19.254Z,979.09
2023-01-13T10:16:19.335Z,979.07
2023-01-13T10:17:19.272Z,979.10
2023-01-13T10:18:19.362Z,979.06
2023-01-13T10:19:19.212Z,979.02
2023-01-13T10:20:19.225Z,979.07
2023-01-13T10:21:19.187Z,979.05
2023-01-13T10:22:19.226Z,979.05
2023-01-13T10:23:19.193Z,979.12
2023-01-13T10:24:19.197Z,979.13
2023-01-13T10:25:19.149Z,979.17
2023-01-13T10:26:19.247Z,979.15
2023-01-13T10:27:19.157Z,979.11
2023-01-13T10:28:19.510Z,979.10
2023-01-13T10:29:19.120Z,979.11
2023-01-13T10:30:19.214Z,979.20
2023-01-13T10:31:19.158Z,979.12
2023-01-13T10:32:19.080Z,979.12
2023-01-13T10:33:19.077Z,979.14
2023-01-13T10:34:19.105Z,979.18
2023-01-13T10:35:19.052Z,979.13
2023-01-13T10:36:19.045Z,979.21
2023-01-13T10:37:19.027Z,979.15
2023-01-13T10:38:19.068Z,979.21
2023-01-13T10:39:19.126Z,979.25
2023-01-13T10:40:19.095Z,979.06
2023-01-13T10:41:18.989Z,979.07
2023-01-13T10:42:18.986Z,979.19
2023-01-13T10:43:18.963Z,979.13
2023-01-13T10:44:18.971Z,979.12
2023-01-13T10:45:18.941Z,979.13
2023-01-13T10:46:19.013Z,979.16
2023-01-13T10:47:18.917Z,979.17
2023-01-13T10:48:18.921Z,979.34
2023-01-13T10:49:18.899Z,979.29
2023-01-13T10:50:18.896Z,979.31
2023-01-13T10:51:18.884Z,979.32
2023-01-13T10:52:19.033Z,979.35
2023-01-13T10:53:18.861Z,979.32
2023-01-13T10:54:18.855Z,979.41
2023-01-13T10:55:18.838Z,979.34
2023-01-13T10:56:18.832Z,979.29
2023-01-13T10:57:18.819Z,979.44
2023-01-13T10:58:18.922Z,979.36
2023-01-13T10:59:18.798Z,979.38
2023-01-13T11:00:18.791Z,979.35
2023-01-13T11:01:18.907Z,979.36
2023-01-13T11:02:25.748Z,979.34
2023-01-13T11:03:18.784Z,979.38
2023-01-13T11:04:18.749Z,979.43
2023-01-13T11:05:18.741Z,979.41
2023-01-13T11:06:18.730Z,979.42
2023-01-13T11:07:18.715Z,979.36
2023-01-13T11:08:18.749Z,979.46
2023-01-13T11:09:18.717Z,979.40
2023-01-13T11:10:18.709Z,979.38
2023-01-13T11:11:18.673Z,979.41
2023-01-13T11:12:18.668Z,979.43
2023-01-13T11:13:18.656Z,979.41
2023-01-13T11:14:18.641Z,979.36
2023-01-13T11:15:18.675Z,979.46
2023-01-13T11:16:18.756Z,979.35
2023-01-13T11:17:18.614Z,979.30
2023-01-13T11:18:18.605Z,979.33
2023-01-13T11:19:18.595Z,979.41
2023-01-13T11:20:18.985Z,979.46
2023-01-13T11:21:18.580Z,979.48
2023-01-13T11:22:18.563Z,979.44
2023-01-13T11:23:18.560Z,979.46
2023-01-13T11:24:18.559Z,979.54
2023-01-13T11:25:18.543Z,979.34
2023-01-13T11:26:18.537Z,979.36
2023-01-13T11:27:18.527Z,979.46
2023-01-13T11:28:18.494Z,979.40
2023-01-13T11:29:18.501Z,979.41
2023-01-13T11:30:18.485Z,979.46
2023-01-13T11:31:18.546Z,979.50
2023-01-13T11:32:18.463Z,979.55
2023-01-13T11:33:18.455Z,979.43
2023-01-13T11:34:18.439Z,979.56
2023-01-13T11:35:18.429Z,979.47
2023-01-13T11:36:20.505Z,979.41
2023-01-13T11:37:18.584Z,979.35
2023-01-13T11:38:18.394Z,979.33
2023-01-13T11:39:18.397Z,979.20
2023-01-13T11:40:18.376Z,979.27
2023-01-13T11:41:18.376Z,979.29
2023-01-13T11:42:18.383Z,979.33
2023-01-13T11:43:18.349Z,979.23
2023-01-13T11:44:18.371Z,979.33
2023-01-13T11:45:18.331Z,979.49
2023-01-13T11:46:18.351Z,979.27
2023-01-13T11:47:18.309Z,979.39
2023-01-13T11:48:18.313Z,979.29
2023-01-13T11:49:18.286Z,979.44
2023-01-13T11:50:18.273Z,979.32
2023-01-13T11:51:18.263Z,979.30
2023-01-13T11:52:18.252Z,979.26
2023-01-13T11:53:18.285Z,979.22
2023-01-13T11:54:18.228Z,979.27
2023-01-13T11:55:18.234Z,979.24
2023-01-13T11:56:18.209Z,979.25
2023-01-13T11:57:18.208Z,979.43
2023-01-13T11:58:18.193Z,979.33
2023-01-13T11:59:18.208Z,979.28
2023-01-13T12:00:18.167Z,979.19
2023-01-13T12:01:18.209Z,979.21
2023-01-13T12:02:18.218Z,979.11
2023-01-13T12:03:18.296Z,979.17
2023-01-13T12:04:18.359Z,979.16
2023-01-13T12:05:18.126Z,979.11
2023-01-13T12:06:18.108Z,979.09
2023-01-13T12:07:18.121Z,979.10
2023-01-13T12:08:18.088Z,979.08
2023-01-13T12:09:18.089Z,979.04
2023-01-13T12:10:18.161Z,979.02
2023-01-13T12:11:18.058Z,979.02
2023-01-13T12:12:18.068Z,978.97
2023-01-13T12:13:18.035Z,978.99
2023-01-13T12:14:18.027Z,978.91
2023-01-13T12:15:18.044Z,978.93
2023-01-13T12:16:18.057Z,978.98
2023-01-13T12:17:18.000Z,978.97
2023-01-13T12:18:17.987Z,979.02
2023-01-13T12:19:17.970Z,979.00
2023-01-13T12:20:17.958Z,979.00
2023-01-13T12:21:17.990Z,979.02
2023-01-13T12:22:17.949Z,979.03
2023-01-13T12:23:17.932Z,979.03
2023-01-13T12:24:17.920Z,978.97
2023-01-13T12:25:17.909Z,978.93
2023-01-13T12:26:17.904Z,979.04
2023-01-13T12:27:17.914Z,978.97
2023-01-13T12:28:17.942Z,978.97